createdAt,value
2022-12-27T00:01:32.369Z,14.93
2022-12-27T00:03:58.976Z,13.00
2022-12-27T00:06:26.843Z,14.77
2022-12-27T00:08:54.625Z,15.23
2022-12-27T00:11:24.853Z,18.30
2022-12-27T00:13:52.016Z,19.20
2022-12-27T00:16:20.708Z,20.63
2022-12-27T00:18:49.177Z,18.73
2022-12-27T00:21:16.724Z,18.93
2022-12-27T00:23:46.496Z,20.53
2022-12-27T00:26:22.190Z,17.77
2022-12-27T00:28:49.632Z,18.97
2022-12-27T00:31:17.422Z,19.23
2022-12-27T00:33:45.737Z,15.70
2022-12-27T00:36:17.051Z,17.43
2022-12-27T00:38:44.247Z,15.73
2022-12-27T00:41:11.276Z,17.30
2022-12-27T00:43:37.880Z,17.53
2022-12-27T00:46:05.046Z,19.73
2022-12-27T00:48:31.848Z,19.03
2022-12-27T00:51:00.177Z,19.00
2022-12-27T00:53:28.040Z,18.50
2022-12-27T00:55:54.952Z,18.00
2022-12-27T00:58:21.752Z,18.13
2022-12-27T01:00:49.212Z,17.13
2022-12-27T01:03:17.036Z,16.90
2022-12-27T01:05:44.323Z,18.37
2022-12-27T01:08:11.385Z,16.60
2022-12-27T01:10:40.311Z,18.20
2022-12-27T01:13:06.991Z,16.93
2022-12-27T01:15:33.575Z,17.70
2022-12-27T01:18:00.186Z,18.40
2022-12-27T01:20:26.803Z,18.60
2022-12-27T01:22:54.639Z,18.70
2022-12-27T01:25:21.265Z,19.00
2022-12-27T01:27:47.908Z,17.77
2022-12-27T01:30:14.564Z,16.77
2022-12-27T01:32:41.196Z,18.27
2022-12-27T01:35:08.187Z,19.77
2022-12-27T01:37:34.788Z,18.20
2022-12-27T01:40:01.488Z,21.17
2022-12-27T01:42:46.665Z,20.00
2022-12-27T01:45:17.591Z,20.17
2022-12-27T01:47:50.143Z,19.90
2022-12-27T01:50:31.692Z,19.47
2022-12-27T01:53:04.174Z,20.30
2022-12-27T01:55:39.452Z,19.03
2022-12-27T01:58:14.028Z,19.67
2022-12-27T02:00:43.969Z,18.03
2022-12-27T02:03:12.212Z,17.33
2022-12-27T02:05:41.882Z,16.67
2022-12-27T02:08:24.186Z,19.10
2022-12-27T02:10:51.313Z,20.77
2022-12-27T02:13:19.154Z,24.60
2022-12-27T02:15:45.930Z,21.37
2022-12-27T02:18:12.532Z,21.97
2022-12-27T02:21:11.167Z,24.73
2022-12-27T02:24:06.807Z,19.97
2022-12-27T02:26:46.781Z,20.50
2022-12-27T02:29:18.464Z,21.33
2022-12-27T02:32:07.439Z,19.13
2022-12-27T02:34:49.371Z,19.63
2022-12-27T02:37:16.018Z,18.77
2022-12-27T02:39:46.766Z,13.73
2022-12-27T02:42:35.391Z,8.60
2022-12-27T02:45:21.430Z,7.97
2022-12-27T02:48:07.332Z,9.67
2022-12-27T02:51:11.709Z,4.00
2022-12-27T02:53:55.429Z,3.97
2022-12-27T02:57:10.896Z,6.90
2022-12-27T03:00:16.142Z,5.67
2022-12-27T03:03:15.839Z,3.77
2022-12-27T03:06:14.231Z,4.77
2022-12-27T03:08:53.815Z,8.70
2022-12-27T03:11:39.302Z,9.77
2022-12-27T03:14:36.975Z,9.27
2022-12-27T03:17:10.893Z,9.50
2022-12-27T03:20:04.604Z,10.90
2022-12-27T03:22:50.971Z,11.33
2022-12-27T03:25:30.236Z,9.77
2022-12-27T03:28:38.845Z,11.27
2022-12-27T03:31:36.042Z,11.33
2022-12-27T03:34:26.533Z,13.47
2022-12-27T03:37:13.495Z,16.03
2022-12-27T03:39:44.108Z,17.50
2022-12-27T03:42:37.233Z,19.30
2022-12-27T03:45:04.193Z,14.73
2022-12-27T03:47:49.001Z,18.10
2022-12-27T03:50:22.490Z,16.07
2022-12-27T03:52:57.713Z,17.10
2022-12-27T03:55:29.974Z,18.53
2022-12-27T03:57:59.773Z,19.93
2022-12-27T04:00:26.398Z,19.97
2022-12-27T04:02:53.104Z,21.97
2022-12-27T04:05:19.827Z,19.87
2022-12-27T04:08:04.966Z,18.43
2022-12-27T04:10:50.232Z,24.43
2022-12-27T04:13:35.388Z,20.90
2022-12-27T04:16:20.940Z,19.47
2022-12-27T04:19:06.099Z,18.27
2022-12-27T04:21:50.954Z,15.17
2022-12-27T04:24:36.030Z,12.23
2022-12-27T04:27:21.085Z,10.53
2022-12-27T04:30:06.224Z,9.50
2022-12-27T04:32:51.090Z,8.53
2022-12-27T04:35:17.729Z,8.60
2022-12-27T04:37:44.349Z,9.93
2022-12-27T04:40:30.005Z,10.00
2022-12-27T04:43:15.107Z,11.13
2022-12-27T04:46:00.075Z,10.53
2022-12-27T04:48:46.604Z,11.17
2022-12-27T04:51:31.738Z,10.27
2022-12-27T04:54:16.771Z,10.33
2022-12-27T04:56:43.346Z,10.67
2022-12-27T04:59:28.243Z,13.20
2022-12-27T05:02:04.033Z,12.70
2022-12-27T05:04:37.037Z,16.60
2022-12-27T05:07:25.727Z,21.27
2022-12-27T05:10:10.966Z,18.43
2022-12-27T05:12:56.250Z,17.37
2022-12-27T05:15:22.840Z,16.03
2022-12-27T05:17:49.438Z,18.60
2022-12-27T05:20:16.075Z,15.80
2022-12-27T05:23:01.329Z,16.43
2022-12-27T05:25:39.850Z,17.90
2022-12-27T05:28:08.916Z,17.70
2022-12-27T05:30:40.919Z,15.90
2022-12-27T05:33:08.099Z,15.77
2022-12-27T05:35:35.131Z,32.50
2022-12-27T05:38:02.445Z,21.17
2022-12-27T05:40:29.474Z,14.17
2022-12-27T05:42:58.853Z,14.00
2022-12-27T05:45:25.516Z,17.73
2022-12-27T05:47:53.113Z,25.10
2022-12-27T05:50:19.974Z,44.73
2022-12-27T05:52:46.653Z,23.57
2022-12-27T05:55:13.247Z,21.67
2022-12-27T05:57:39.877Z,23.27
2022-12-27T06:00:07.130Z,22.43
2022-12-27T06:02:33.837Z,22.93
2022-12-27T06:05:00.498Z,19.80
2022-12-27T06:07:27.141Z,19.57
2022-12-27T06:09:53.774Z,19.60
2022-12-27T06:12:20.357Z,22.77
2022-12-27T06:14:46.958Z,21.13
2022-12-27T06:17:13.615Z,78.23
2022-12-27T06:19:40.186Z,32.17
2022-12-27T06:22:06.801Z,22.63
2022-12-27T06:24:33.388Z,23.20
2022-12-27T06:27:00.034Z,24.75
2022-12-27T06:29:26.607Z,20.43
2022-12-27T06:31:53.197Z,16.57
2022-12-27T06:34:19.823Z,21.53
2022-12-27T06:36:50.305Z,26.47
2022-12-27T06:39:20.214Z,24.27
2022-12-27T06:41:46.859Z,23.53
2022-12-27T06:44:13.427Z,23.93
2022-12-27T06:46:40.058Z,26.23
2022-12-27T06:49:06.671Z,19.90
2022-12-27T06:51:33.968Z,10.40
2022-12-27T06:54:00.598Z,7.77
2022-12-27T06:56:27.244Z,22.43
2022-12-27T06:58:54.673Z,20.90
2022-12-27T07:01:22.477Z,19.37
2022-12-27T07:03:50.762Z,20.83
2022-12-27T07:06:17.663Z,20.70
2022-12-27T07:08:44.285Z,17.97
2022-12-27T07:11:12.573Z,13.43
2022-12-27T07:13:42.745Z,14.27
2022-12-27T07:16:11.792Z,7.03
2022-12-27T07:18:38.642Z,4.97
2022-12-27T07:21:10.139Z,4.67
2022-12-27T07:23:37.291Z,4.87
2022-12-27T07:26:09.505Z,6.50
2022-12-27T07:28:36.353Z,6.63
2022-12-27T07:31:23.454Z,7.63
2022-12-27T07:33:50.689Z,8.93
2022-12-27T07:36:19.355Z,10.20
2022-12-27T07:38:45.997Z,18.77
2022-12-27T07:41:13.472Z,20.60
2022-12-27T07:43:40.333Z,17.33
2022-12-27T07:46:10.311Z,13.13
2022-12-27T07:48:37.565Z,14.50
2022-12-27T07:51:04.856Z,14.07
2022-12-27T07:53:31.978Z,14.33
2022-12-27T07:55:58.745Z,14.30
2022-12-27T07:58:25.723Z,14.77
2022-12-27T08:00:52.697Z,13.30
2022-12-27T08:03:19.458Z,14.30
2022-12-27T08:05:52.717Z,16.63
2022-12-27T08:08:21.837Z,22.83
2022-12-27T08:10:48.773Z,25.37
2022-12-27T08:13:15.409Z,21.43
2022-12-27T08:15:43.026Z,23.27
2022-12-27T08:18:10.078Z,17.73
2022-12-27T08:20:36.956Z,15.50
2022-12-27T08:23:03.949Z,20.73
2022-12-27T08:25:30.518Z,28.23
2022-12-27T08:28:08.624Z,17.67
2022-12-27T08:30:35.283Z,19.10
2022-12-27T08:33:02.882Z,6.40
2022-12-27T08:38:16.588Z,4.20
2022-12-27T08:40:44.586Z,3.25
2022-12-27T08:43:12.003Z,2.90
2022-12-27T08:45:39.720Z,2.60
2022-12-27T08:48:07.164Z,3.40
2022-12-27T08:50:34.294Z,2.90
2022-12-27T08:53:04.702Z,2.90
2022-12-27T08:55:32.320Z,3.50
2022-12-27T08:58:00.255Z,4.20
2022-12-27T09:00:27.512Z,3.90
2022-12-27T09:02:54.712Z,3.17
2022-12-27T09:05:22.698Z,3.33
2022-12-27T09:07:49.477Z,2.80
2022-12-27T09:10:16.574Z,3.53
2022-12-27T09:12:43.197Z,5.23
2022-12-27T09:15:10.157Z,3.23
2022-12-27T09:17:36.852Z,5.13
2022-12-27T09:20:04.661Z,4.63
2022-12-27T09:22:31.404Z,3.40
2022-12-27T09:24:58.186Z,4.70
2022-12-27T09:27:24.885Z,2.30
2022-12-27T09:29:52.192Z,3.00
2022-12-27T09:32:18.872Z,3.40
2022-12-27T09:34:45.568Z,3.97
2022-12-27T09:37:12.123Z,3.80
2022-12-27T09:39:38.784Z,2.80
2022-12-27T09:45:24.963Z,3.40
2022-12-27T09:48:01.618Z,4.80
2022-12-27T09:50:33.611Z,4.30
2022-12-27T09:53:07.566Z,3.53
2022-12-27T09:55:34.207Z,4.53
2022-12-27T09:58:28.518Z,3.47
2022-12-27T10:00:55.194Z,4.30
2022-12-27T10:03:25.770Z,6.00
2022-12-27T10:06:24.659Z,5.53
2022-12-27T10:09:04.487Z,4.20
2022-12-27T10:11:55.458Z,4.90
2022-12-27T10:14:47.148Z,3.80
2022-12-27T10:17:32.645Z,3.90
2022-12-27T10:20:17.570Z,4.90
2022-12-27T10:22:49.769Z,5.23
2022-12-27T10:25:20.257Z,5.03
2022-12-27T10:27:47.518Z,6.33
2022-12-27T10:30:22.583Z,7.03
2022-12-27T10:32:49.879Z,9.23
2022-12-27T10:35:18.966Z,6.67
2022-12-27T10:37:46.901Z,5.43
2022-12-27T10:40:21.263Z,5.10
2022-12-27T10:43:03.371Z,5.00
2022-12-27T10:45:36.536Z,5.57
2022-12-27T10:48:12.197Z,4.40
2022-12-27T10:50:39.130Z,5.30
2022-12-27T10:53:05.705Z,5.13
2022-12-27T10:55:37.848Z,5.57
2022-12-27T10:58:31.700Z,6.60
2022-12-27T11:00:58.506Z,10.50
2022-12-27T11:03:26.346Z,8.63
2022-12-27T11:06:04.409Z,6.40
2022-12-27T11:08:31.104Z,5.13
2022-12-27T11:11:15.907Z,7.17
2022-12-27T11:13:42.722Z,5.27
2022-12-27T11:16:35.718Z,3.90
2022-12-27T11:19:03.442Z,5.63
2022-12-27T11:21:30.657Z,12.33
2022-12-27T11:24:00.262Z,3.80
2022-12-27T11:26:30.051Z,11.57
2022-12-27T11:29:01.194Z,8.80
2022-12-27T11:31:36.712Z,6.13
2022-12-27T11:34:16.137Z,3.53
2022-12-27T11:36:46.245Z,3.30
2022-12-27T11:39:52.090Z,3.13
2022-12-27T11:42:21.572Z,3.67
2022-12-27T11:45:23.138Z,3.50
2022-12-27T11:47:55.920Z,4.20
2022-12-27T11:50:28.487Z,4.27
2022-12-27T11:53:13.719Z,2.97
2022-12-27T11:55:53.382Z,4.67
2022-12-27T11:58:38.272Z,3.80
2022-12-27T12:01:14.044Z,3.37
2022-12-27T12:03:40.605Z,3.23
2022-12-27T12:06:13.263Z,4.00
2022-12-27T12:09:09.292Z,3.25
2022-12-27T12:11:55.139Z,3.63
2022-12-27T12:14:50.833Z,3.80
2022-12-27T12:17:43.360Z,3.33
2022-12-27T12:20:51.327Z,3.30
2022-12-27T12:23:55.449Z,3.10
2022-12-27T12:26:24.472Z,3.80
2022-12-27T12:29:13.255Z,4.73
2022-12-27T12:32:27.447Z,3.07
2022-12-27T12:35:07.593Z,4.27
2022-12-27T12:37:37.243Z,3.70
2022-12-27T12:40:03.767Z,5.13
2022-12-27T12:42:39.633Z,4.77
2022-12-27T12:45:39.059Z,4.93
2022-12-27T12:48:34.947Z,4.30
2022-12-27T12:51:26.366Z,4.33
2022-12-27T12:54:22.404Z,4.60
2022-12-27T12:57:04.045Z,4.80
2022-12-27T13:00:09.307Z,4.50
2022-12-27T13:02:54.520Z,4.60
2022-12-27T13:05:33.705Z,4.60
2022-12-27T13:08:24.512Z,5.03
2022-12-27T13:10:51.170Z,5.20
2022-12-27T13:13:35.805Z,5.00
2022-12-27T13:16:13.245Z,4.47
2022-12-27T13:18:51.993Z,5.10
2022-12-27T13:21:40.546Z,5.47
2022-12-27T13:24:29.988Z,5.40
2022-12-27T13:27:20.888Z,4.77
2022-12-27T13:30:06.714Z,6.00
2022-12-27T13:32:52.642Z,5.17
2022-12-27T13:35:58.225Z,4.90
2022-12-27T13:38:42.885Z,4.83
2022-12-27T13:41:39.672Z,5.40
2022-12-27T13:44:21.639Z,5.80
2022-12-27T13:47:05.129Z,4.73
2022-12-27T13:49:59.636Z,4.27
2022-12-27T13:52:35.483Z,5.30
2022-12-27T13:55:20.799Z,5.97
2022-12-27T13:58:02.528Z,5.60
2022-12-27T14:00:34.359Z,5.60
2022-12-27T14:03:16.122Z,5.30
2022-12-27T14:06:03.296Z,6.70
2022-12-27T14:08:58.290Z,11.50
2022-12-27T14:11:46.545Z,6.03
2022-12-27T14:14:16.712Z,3.83
2022-12-27T14:17:17.099Z,3.67
2022-12-27T14:20:11.514Z,4.40
2022-12-27T14:23:17.861Z,3.87
2022-12-27T14:25:53.134Z,3.40
2022-12-27T14:28:21.695Z,3.23
2022-12-27T14:31:14.363Z,6.27
2022-12-27T14:34:27.436Z,3.43
2022-12-27T14:37:19.188Z,3.73
2022-12-27T14:40:13.298Z,4.20
2022-12-27T14:42:45.876Z,3.97
2022-12-27T14:45:20.181Z,3.37
2022-12-27T14:48:18.597Z,4.10
2022-12-27T14:51:50.385Z,3.50
2022-12-27T14:54:37.894Z,3.70
2022-12-27T14:57:33.790Z,4.43
2022-12-27T15:00:19.038Z,4.33
2022-12-27T15:02:48.946Z,4.30
2022-12-27T15:05:39.816Z,3.67
2022-12-27T15:08:22.765Z,3.00
2022-12-27T15:11:06.166Z,3.57
2022-12-27T15:13:45.999Z,3.63
2022-12-27T15:16:16.862Z,3.63
2022-12-27T15:19:28.133Z,6.53
2022-12-27T15:22:08.058Z,3.23
2022-12-27T15:24:52.564Z,3.80
2022-12-27T15:27:32.766Z,4.33
2022-12-27T15:30:05.720Z,4.63
2022-12-27T15:32:53.280Z,4.47
2022-12-27T15:35:39.041Z,4.53
2022-12-27T15:38:42.549Z,4.97
2022-12-27T15:41:09.237Z,3.40
2022-12-27T15:43:38.777Z,3.20
2022-12-27T15:46:08.181Z,3.20
2022-12-27T15:48:53.877Z,3.73
2022-12-27T15:51:35.014Z,4.37
2022-12-27T15:54:26.271Z,4.20
2022-12-27T15:57:35.558Z,3.83
2022-12-27T16:00:09.435Z,3.17
2022-12-27T16:02:49.526Z,7.37
2022-12-27T16:05:19.292Z,6.67
2022-12-27T16:08:01.279Z,2.47
2022-12-27T16:10:34.238Z,7.93
2022-12-27T16:13:09.744Z,12.57
2022-12-27T16:15:47.963Z,6.93
2022-12-27T16:18:23.603Z,14.17
2022-12-27T16:21:09.475Z,3.40
2022-12-27T16:23:39.014Z,4.30
2022-12-27T16:26:25.648Z,4.50
2022-12-27T16:29:12.460Z,3.07
2022-12-27T16:31:45.595Z,4.47
2022-12-27T16:34:28.663Z,3.87
2022-12-27T16:36:57.744Z,2.30
2022-12-27T16:39:34.082Z,3.53
2022-12-27T16:42:03.201Z,2.90
2022-12-27T16:44:52.284Z,2.40
2022-12-27T16:47:43.941Z,3.30
2022-12-27T16:50:35.973Z,2.60
2022-12-27T16:53:38.558Z,3.23
2022-12-27T16:56:17.326Z,4.50
2022-12-27T16:58:44.299Z,4.90
2022-12-27T17:01:26.546Z,9.40
2022-12-27T17:03:54.656Z,5.27
2022-12-27T17:06:36.738Z,3.03
2022-12-27T17:09:06.416Z,4.03
2022-12-27T17:11:35.197Z,3.87
2022-12-27T17:14:16.767Z,2.20
2022-12-27T17:16:48.514Z,37.67
2022-12-27T17:19:21.546Z,8.60
2022-12-27T17:21:55.580Z,3.90
2022-12-27T17:24:23.419Z,2.83
2022-12-27T17:27:27.733Z,2.87
2022-12-27T17:30:09.618Z,3.90
2022-12-27T17:32:54.720Z,4.70
2022-12-27T17:35:25.748Z,3.23
2022-12-27T17:38:19.461Z,10.40
2022-12-27T17:41:15.382Z,5.40
2022-12-27T17:44:24.155Z,5.03
2022-12-27T17:47:11.785Z,4.67
2022-12-27T17:49:42.089Z,3.30
2022-12-27T17:52:34.741Z,3.37
2022-12-27T17:55:36.277Z,7.83
2022-12-27T17:58:09.420Z,2.67
2022-12-27T18:00:41.090Z,2.50
2022-12-27T18:03:09.172Z,7.70
2022-12-27T18:05:40.763Z,8.80
2022-12-27T18:08:17.548Z,2.97
2022-12-27T18:10:44.273Z,5.43
2022-12-27T18:13:17.695Z,2.97
2022-12-27T18:15:45.444Z,6.97
2022-12-27T18:18:18.135Z,3.13
2022-12-27T18:20:45.159Z,2.67
2022-12-27T18:23:12.054Z,4.77
2022-12-27T18:25:44.673Z,14.07
2022-12-27T18:28:17.045Z,22.30
2022-12-27T18:30:51.815Z,26.07
2022-12-27T18:33:26.589Z,41.63
2022-12-27T18:35:53.302Z,40.17
2022-12-27T18:38:28.323Z,10.60
2022-12-27T18:41:00.782Z,5.17
2022-12-27T18:43:27.410Z,2.27
2022-12-27T18:45:56.021Z,3.10
2022-12-27T18:48:22.938Z,2.30
2022-12-27T18:50:53.605Z,2.17
2022-12-27T18:53:38.410Z,2.33
2022-12-27T18:56:06.474Z,2.37
2022-12-27T18:58:34.107Z,5.90
2022-12-27T19:01:22.951Z,4.87
2022-12-27T19:04:18.958Z,6.70
2022-12-27T19:06:54.775Z,8.67
2022-12-27T19:09:24.031Z,8.80
2022-12-27T19:12:24.083Z,9.40
2022-12-27T19:14:50.856Z,6.00
2022-12-27T19:17:30.599Z,7.90
2022-12-27T19:20:02.350Z,15.57
2022-12-27T19:22:42.467Z,5.80
2022-12-27T19:25:18.633Z,12.83
2022-12-27T19:28:09.937Z,2.73
2022-12-27T19:30:43.408Z,4.63
2022-12-27T19:33:15.828Z,2.10
2022-12-27T19:35:42.974Z,3.10
2022-12-27T19:38:21.927Z,2.80
2022-12-27T19:40:53.554Z,4.10
2022-12-27T19:43:25.322Z,2.43
2022-12-27T19:45:52.443Z,2.30
2022-12-27T19:48:19.084Z,3.60
2022-12-27T19:50:48.651Z,3.00
2022-12-27T19:53:22.911Z,2.40
2022-12-27T19:55:49.488Z,2.70
2022-12-27T19:58:25.112Z,3.00
2022-12-27T20:00:51.973Z,2.43
2022-12-27T20:03:19.266Z,3.50
2022-12-27T20:06:13.025Z,3.13
2022-12-27T20:08:36.813Z,2.63
2022-12-27T20:11:05.597Z,2.30
2022-12-27T20:13:32.387Z,2.53
2022-12-27T20:16:00.354Z,3.13
2022-12-27T20:18:27.257Z,3.10
2022-12-27T20:20:54.209Z,2.60
2022-12-27T20:23:20.832Z,2.83
2022-12-27T20:25:48.885Z,2.30
2022-12-27T20:28:16.495Z,4.03
2022-12-27T20:30:44.786Z,4.40
2022-12-27T20:33:11.549Z,4.20
2022-12-27T20:35:38.237Z,7.70
2022-12-27T20:38:05.718Z,5.87
2022-12-27T20:40:32.662Z,3.80
2022-12-27T20:42:59.296Z,2.80
2022-12-27T20:45:25.900Z,6.20
2022-12-27T20:47:52.544Z,5.30
2022-12-27T20:50:19.237Z,3.07
2022-12-27T20:52:45.803Z,2.90
2022-12-27T20:55:26.472Z,3.53
2022-12-27T20:58:08.136Z,2.26
2022-12-27T21:00:34.868Z,2.63
2022-12-27T21:03:01.491Z,2.90
2022-12-27T21:05:28.183Z,3.10
2022-12-27T21:07:54.773Z,3.57
2022-12-27T21:10:21.379Z,2.63
2022-12-27T21:12:48.017Z,3.30
2022-12-27T21:15:14.620Z,3.00
2022-12-27T21:17:41.252Z,4.47
2022-12-27T21:20:11.031Z,3.47
2022-12-27T21:22:37.773Z,4.47
2022-12-27T21:25:04.660Z,9.37
2022-12-27T21:27:31.233Z,26.20
2022-12-27T21:29:57.814Z,3.60
2022-12-27T21:32:24.460Z,5.23
2022-12-27T21:34:51.108Z,2.67
2022-12-27T21:37:17.813Z,3.70
2022-12-27T21:39:44.523Z,7.77
2022-12-27T21:42:12.486Z,6.63
2022-12-27T21:44:39.183Z,3.50
2022-12-27T21:47:06.543Z,5.40
2022-12-27T21:49:34.734Z,4.60
2022-12-27T21:52:01.344Z,3.40
2022-12-27T21:54:27.921Z,3.00
2022-12-27T21:56:54.557Z,2.33
2022-12-27T21:59:21.110Z,2.87
2022-12-27T22:01:50.583Z,2.53
2022-12-27T22:04:20.112Z,2.40
2022-12-27T22:06:47.718Z,2.73
2022-12-27T22:09:14.633Z,2.97
2022-12-27T22:11:41.256Z,2.87
2022-12-27T22:14:07.919Z,2.40
2022-12-27T22:16:36.598Z,3.00
2022-12-27T22:19:06.644Z,3.03
2022-12-27T22:21:35.533Z,2.80
2022-12-27T22:24:03.279Z,2.87
2022-12-27T22:26:37.251Z,2.77
2022-12-27T22:29:04.883Z,3.30
2022-12-27T22:31:35.253Z,2.90
2022-12-27T22:34:03.365Z,2.90
2022-12-27T22:36:30.217Z,3.27
2022-12-27T22:38:58.192Z,4.50
2022-12-27T22:41:27.631Z,3.10
2022-12-27T22:44:08.641Z,3.30
2022-12-27T22:49:21.977Z,3.37
2022-12-27T22:51:48.645Z,3.50
2022-12-27T22:54:15.279Z,5.77
2022-12-27T22:56:42.559Z,6.57
2022-12-27T22:59:11.605Z,4.50
2022-12-27T23:01:39.352Z,3.57
2022-12-27T23:04:07.410Z,3.50
2022-12-27T23:06:35.533Z,3.83
2022-12-27T23:09:02.606Z,8.77
2022-12-27T23:11:31.866Z,7.30
2022-12-27T23:14:04.227Z,5.37
2022-12-27T23:16:38.874Z,4.40
2022-12-27T23:19:05.844Z,4.37
2022-12-27T23:21:32.426Z,3.40
2022-12-27T23:23:59.106Z,3.27
2022-12-27T23:26:25.813Z,2.77
2022-12-27T23:28:52.933Z,3.10
2022-12-27T23:31:21.588Z,2.47
2022-12-27T23:33:48.288Z,4.57
2022-12-27T23:36:15.153Z,4.13
2022-12-27T23:38:42.551Z,4.27
2022-12-27T23:41:13.896Z,3.50
2022-12-27T23:43:56.486Z,7.37
2022-12-27T23:46:27.563Z,4.20
2022-12-27T23:48:55.479Z,3.37
2022-12-27T23:51:22.231Z,3.20
2022-12-27T23:53:49.358Z,3.60
2022-12-27T23:56:27.028Z,3.40
2022-12-27T23:58:55.212Z,4.00
